Hauptseite
METAR-TAF:

METAR-TAF

Flughäfen :

London City Airport

London, England

Breite: 51-30N, Länge: 000-03E, Höhe: 5 m

Beobachtung

Neuester Wetterbericht von vor 38 Minuten, um 08:20 UTC
Wind 3 kt aus unterschiedlichen Richtungen
Temperatur 14°C
Luftfeuchtigkeit 63%
Luftdruck 1022 hPa
Sichtweite 10 km oder mehr

METAR: EGLC 210820Z AUTO VRB03KT 9999 NCD 14/07 Q1022

Zeit: 09:58 (08:58 UTC)

Prognose

Neuester Wetterbericht von vor 1 Stunde und 2 Minuten, um 07:56 UTC
Gültige Prognose vom 21 um 09 UTC bis 21 um 18 UTC
Wind 6 kt aus Ost/Nordost
Sichtweite 10 km oder mehr
keine Wolken unter 1500 m und keine Kumulonimbus oder Gewitterwolken

TAF: EGLC 210756Z 2109/2118 06006KT CAVOK

Wetterbeobachtungen und Prognosen von mehr als 4000 Flughäfen (METAR und TAF Bericht).

Die verfügbaren Stationen werden durch gelbe und rote Markierungen auf der Karte dargestellt.

Führen Sie die Maus auf sie, um den Namen der Station zu sehen.

Darauf klicken, um die Beobachtung von Wetterbeobachtungen und Prognosen zu sehen.

Um die Karte zu ändern : klicken Sie auf den grünen Tasten mit einem schwarzen Kreuz Zum Vergrößern, auf den grünen Button mit einem Gedankenstrich zu verkleinern, oder auf die grünen Pfeile für benachbarte Karten.


METAR-TAF: